sensor_id;sensor_type;location;lat;lon;timestamp;pressure;altitude;pressure_sealevel;temperature;humidity
64368;BME280;50692;53.314;-6.300;2023-04-06T00:02:12;101024.34;;;11.34;73.90
64368;BME280;50692;53.314;-6.300;2023-04-06T00:04:58;101009.56;;;11.12;74.11
64368;BME280;50692;53.314;-6.300;2023-04-06T00:07:44;101024.44;;;11.15;74.31
64368;BME280;50692;53.314;-6.300;2023-04-06T00:10:30;101025.75;;;11.06;74.42
64368;BME280;50692;53.314;-6.300;2023-04-06T00:13:16;101019.84;;;11.01;74.61
64368;BME280;50692;53.314;-6.300;2023-04-06T00:16:04;101013.91;;;10.78;74.57
64368;BME280;50692;53.314;-6.300;2023-04-06T00:18:51;101018.25;;;10.79;74.98
64368;BME280;50692;53.314;-6.300;2023-04-06T00:21:37;100967.81;;;10.48;74.98
64368;BME280;50692;53.314;-6.300;2023-04-06T00:24:28;100992.72;;;10.61;74.96
64368;BME280;50692;53.314;-6.300;2023-04-06T00:27:14;100990.78;;;10.65;74.74
64368;BME280;50692;53.314;-6.300;2023-04-06T00:30:01;100992.19;;;10.72;74.45
64368;BME280;50692;53.314;-6.300;2023-04-06T00:32:47;100981.34;;;10.59;74.27
64368;BME280;50692;53.314;-6.300;2023-04-06T00:35:40;100982.38;;;10.74;74.44
64368;BME280;50692;53.314;-6.300;2023-04-06T00:38:26;100985.81;;;10.76;74.47
64368;BME280;50692;53.314;-6.300;2023-04-06T00:41:12;100952.78;;;10.48;74.60
64368;BME280;50692;53.314;-6.300;2023-04-06T00:43:59;101006.31;;;10.71;75.26
64368;BME280;50692;53.314;-6.300;2023-04-06T00:46:53;100959.16;;;10.44;75.57
64368;BME280;50692;53.314;-6.300;2023-04-06T00:49:41;100991.06;;;10.59;75.95
64368;BME280;50692;53.314;-6.300;2023-04-06T00:52:27;101004.44;;;10.55;76.28
64368;BME280;50692;53.314;-6.300;2023-04-06T00:55:14;100996.59;;;10.54;76.78
64368;BME280;50692;53.314;-6.300;2023-04-06T00:58:08;100983.66;;;10.48;77.16
64368;BME280;50692;53.314;-6.300;2023-04-06T01:00:54;100987.94;;;10.50;77.09
64368;BME280;50692;53.314;-6.300;2023-04-06T01:03:49;100977.19;;;10.36;77.37
64368;BME280;50692;53.314;-6.300;2023-04-06T01:06:35;100963.59;;;10.25;77.55
64368;BME280;50692;53.314;-6.300;2023-04-06T01:09:23;100998.19;;;10.39;77.63
64368;BME280;50692;53.314;-6.300;2023-04-06T01:12:08;101015.59;;;10.43;77.64
64368;BME280;50692;53.314;-6.300;2023-04-06T01:14:55;101008.63;;;10.42;77.46
64368;BME280;50692;53.314;-6.300;2023-04-06T01:17:41;101015.84;;;10.39;77.50
64368;BME280;50692;53.314;-6.300;2023-04-06T01:20:27;101014.19;;;10.36;77.69
64368;BME280;50692;53.314;-6.300;2023-04-06T01:23:13;101013.38;;;10.34;77.58
64368;BME280;50692;53.314;-6.300;2023-04-06T01:25:59;101009.19;;;10.30;77.63
64368;BME280;50692;53.314;-6.300;2023-04-06T01:28:44;101003.88;;;10.30;77.42
64368;BME280;50692;53.314;-6.300;2023-04-06T01:31:30;101008.19;;;10.32;77.33
64368;BME280;50692;53.314;-6.300;2023-04-06T01:34:16;101007.19;;;10.35;77.13
64368;BME280;50692;53.314;-6.300;2023-04-06T01:37:02;100999.59;;;10.27;77.36
64368;BME280;50692;53.314;-6.300;2023-04-06T01:39:48;100999.69;;;10.26;77.41
64368;BME280;50692;53.314;-6.300;2023-04-06T01:42:33;101005.81;;;10.26;77.28
64368;BME280;50692;53.314;-6.300;2023-04-06T01:45:19;101001.38;;;10.27;77.45
64368;BME280;50692;53.314;-6.300;2023-04-06T01:48:07;100990.69;;;10.30;77.25
64368;BME280;50692;53.314;-6.300;2023-04-06T01:50:53;100994.13;;;10.32;77.43
64368;BME280;50692;53.314;-6.300;2023-04-06T01:53:39;100988.84;;;10.32;77.67
64368;BME280;50692;53.314;-6.300;2023-04-06T01:56:25;100995.69;;;10.36;77.58
64368;BME280;50692;53.314;-6.300;2023-04-06T01:59:12;100978.97;;;10.36;77.64
64368;BME280;50692;53.314;-6.300;2023-04-06T02:01:57;100973.03;;;10.30;78.18
64368;BME280;50692;53.314;-6.300;2023-04-06T02:04:43;100975.69;;;10.30;78.75
64368;BME280;50692;53.314;-6.300;2023-04-06T02:07:29;100980.19;;;10.28;78.78
64368;BME280;50692;53.314;-6.300;2023-04-06T02:10:15;100981.25;;;10.24;78.81
64368;BME280;50692;53.314;-6.300;2023-04-06T02:13:01;100982.25;;;10.22;78.87
64368;BME280;50692;53.314;-6.300;2023-04-06T02:15:46;100980.53;;;10.21;78.92
64368;BME280;50692;53.314;-6.300;2023-04-06T02:18:32;100975.38;;;10.18;78.64
64368;BME280;50692;53.314;-6.300;2023-04-06T02:21:18;100975.38;;;10.18;78.43
64368;BME280;50692;53.314;-6.300;2023-04-06T02:24:05;100978.78;;;10.20;78.04
64368;BME280;50692;53.314;-6.300;2023-04-06T02:26:51;100979.97;;;10.14;77.99
64368;BME280;50692;53.314;-6.300;2023-04-06T02:29:37;100977.19;;;10.17;77.89
64368;BME280;50692;53.314;-6.300;2023-04-06T02:32:24;100971.09;;;10.15;77.66
64368;BME280;50692;53.314;-6.300;2023-04-06T02:35:10;100972.81;;;10.16;77.69
64368;BME280;50692;53.314;-6.300;2023-04-06T02:37:56;100970.81;;;10.02;77.92
64368;BME280;50692;53.314;-6.300;2023-04-06T02:40:43;100985.75;;;10.03;77.93
64368;BME280;50692;53.314;-6.300;2023-04-06T02:43:29;100980.59;;;10.00;78.29
64368;BME280;50692;53.314;-6.300;2023-04-06T02:46:15;100984.31;;;9.96;78.41
64368;BME280;50692;53.314;-6.300;2023-04-06T02:49:00;100989.38;;;10.01;78.29
64368;BME280;50692;53.314;-6.300;2023-04-06T02:51:46;100977.50;;;9.91;78.64
64368;BME280;50692;53.314;-6.300;2023-04-06T02:54:32;100989.28;;;10.02;78.57
64368;BME280;50692;53.314;-6.300;2023-04-06T02:57:19;100983.38;;;9.97;78.80
64368;BME280;50692;53.314;-6.300;2023-04-06T03:00:05;100973.94;;;9.92;79.27
64368;BME280;50692;53.314;-6.300;2023-04-06T03:02:52;100988.66;;;9.97;79.43
64368;BME280;50692;53.314;-6.300;2023-04-06T03:05:38;100981.00;;;9.91;79.63
64368;BME280;50692;53.314;-6.300;2023-04-06T03:08:24;100984.72;;;9.87;79.98
64368;BME280;50692;53.314;-6.300;2023-04-06T03:11:10;100986.38;;;9.90;80.06
64368;BME280;50692;53.314;-6.300;2023-04-06T03:13:56;100982.88;;;9.89;80.11
64368;BME280;50692;53.314;-6.300;2023-04-06T03:16:41;100977.66;;;9.88;80.28
64368;BME280;50692;53.314;-6.300;2023-04-06T03:19:27;100979.53;;;9.85;80.46
64368;BME280;50692;53.314;-6.300;2023-04-06T03:22:13;100980.28;;;9.88;80.31
64368;BME280;50692;53.314;-6.300;2023-04-06T03:24:59;100987.44;;;9.85;80.45
64368;BME280;50692;53.314;-6.300;2023-04-06T03:27:45;100986.06;;;9.77;80.61
64368;BME280;50692;53.314;-6.300;2023-04-06T03:30:31;100998.41;;;9.76;80.76
64368;BME280;50692;53.314;-6.300;2023-04-06T03:33:16;100987.78;;;9.78;80.63
64368;BME280;50692;53.314;-6.300;2023-04-06T03:36:02;100991.28;;;9.78;80.71
64368;BME280;50692;53.314;-6.300;2023-04-06T03:38:48;100985.94;;;9.80;80.61
64368;BME280;50692;53.314;-6.300;2023-04-06T03:41:34;100990.28;;;9.81;80.74
64368;BME280;50692;53.314;-6.300;2023-04-06T03:44:20;100993.00;;;9.79;81.20
64368;BME280;50692;53.314;-6.300;2023-04-06T03:47:06;100989.00;;;9.71;82.02
64368;BME280;50692;53.314;-6.300;2023-04-06T03:49:52;100989.19;;;9.66;82.77
64368;BME280;50692;53.314;-6.300;2023-04-06T03:52:38;100982.59;;;9.56;82.96
64368;BME280;50692;53.314;-6.300;2023-04-06T03:55:23;100994.34;;;9.49;83.36
64368;BME280;50692;53.314;-6.300;2023-04-06T03:58:09;100987.09;;;9.54;83.33
64368;BME280;50692;53.314;-6.300;2023-04-06T04:00:56;101003.28;;;9.46;83.50
64368;BME280;50692;53.314;-6.300;2023-04-06T04:03:41;100997.28;;;9.43;83.75
64368;BME280;50692;53.314;-6.300;2023-04-06T04:06:27;100993.97;;;9.37;84.15
64368;BME280;50692;53.314;-6.300;2023-04-06T04:09:13;100994.28;;;9.30;84.79
64368;BME280;50692;53.314;-6.300;2023-04-06T04:11:59;100988.09;;;9.31;85.44
64368;BME280;50692;53.314;-6.300;2023-04-06T04:14:45;100996.09;;;9.29;85.51
64368;BME280;50692;53.314;-6.300;2023-04-06T04:17:31;100990.72;;;9.31;85.67
64368;BME280;50692;53.314;-6.300;2023-04-06T04:20:16;100977.28;;;9.37;85.44
64368;BME280;50692;53.314;-6.300;2023-04-06T04:23:02;100984.97;;;9.42;85.44
64368;BME280;50692;53.314;-6.300;2023-04-06T04:25:48;100993.91;;;9.39;85.60
64368;BME280;50692;53.314;-6.300;2023-04-06T04:28:34;100984.25;;;9.38;85.52
64368;BME280;50692;53.314;-6.300;2023-04-06T04:31:20;100990.56;;;9.35;85.92
64368;BME280;50692;53.314;-6.300;2023-04-06T04:34:08;100990.72;;;9.31;85.81
64368;BME280;50692;53.314;-6.300;2023-04-06T04:36:53;100991.53;;;9.33;85.67
64368;BME280;50692;53.314;-6.300;2023-04-06T04:39:39;100989.69;;;9.35;85.53
64368;BME280;50692;53.314;-6.300;2023-04-06T04:42:25;100987.09;;;9.33;85.44
64368;BME280;50692;53.314;-6.300;2023-04-06T04:45:11;101003.91;;;9.31;85.36
64368;BME280;50692;53.314;-6.300;2023-04-06T04:47:57;101003.06;;;9.30;85.41
64368;BME280;50692;53.314;-6.300;2023-04-06T04:50:42;100955.91;;;9.02;85.30
64368;BME280;50692;53.314;-6.300;2023-04-06T04:53:28;101012.56;;;9.34;85.32
64368;BME280;50692;53.314;-6.300;2023-04-06T04:56:14;101020.44;;;9.36;85.39
64368;BME280;50692;53.314;-6.300;2023-04-06T04:59:00;101019.50;;;9.37;85.57
64368;BME280;50692;53.314;-6.300;2023-04-06T05:01:46;101022.09;;;9.39;85.53
64368;BME280;50692;53.314;-6.300;2023-04-06T05:04:31;101018.44;;;9.41;85.48
64368;BME280;50692;53.314;-6.300;2023-04-06T05:07:17;101019.16;;;9.45;85.65
64368;BME280;50692;53.314;-6.300;2023-04-06T05:10:04;101020.81;;;9.47;85.57
64368;BME280;50692;53.314;-6.300;2023-04-06T05:12:50;101022.59;;;9.47;85.82
64368;BME280;50692;53.314;-6.300;2023-04-06T05:15:36;101013.44;;;9.35;85.66
64368;BME280;50692;53.314;-6.300;2023-04-06T05:18:25;101029.78;;;9.43;85.85
64368;BME280;50692;53.314;-6.300;2023-04-06T05:21:11;101033.41;;;9.41;86.04
64368;BME280;50692;53.314;-6.300;2023-04-06T05:23:58;101032.63;;;9.39;85.89
64368;BME280;50692;53.314;-6.300;2023-04-06T05:26:44;101037.97;;;9.37;85.59
64368;BME280;50692;53.314;-6.300;2023-04-06T05:29:30;101039.88;;;9.33;85.98
64368;BME280;50692;53.314;-6.300;2023-04-06T05:32:16;101037.19;;;9.35;86.05
64368;BME280;50692;53.314;-6.300;2023-04-06T05:35:02;101045.16;;;9.33;86.13
64368;BME280;50692;53.314;-6.300;2023-04-06T05:37:47;101043.31;;;9.35;86.26
64368;BME280;50692;53.314;-6.300;2023-04-06T05:40:33;101038.91;;;9.36;86.24
64368;BME280;50692;53.314;-6.300;2023-04-06T05:43:20;101051.97;;;9.39;86.18
64368;BME280;50692;53.314;-6.300;2023-04-06T05:46:06;101051.03;;;9.40;85.97
64368;BME280;50692;53.314;-6.300;2023-04-06T05:48:51;101039.66;;;9.38;86.09
64368;BME280;50692;53.314;-6.300;2023-04-06T05:51:37;101046.72;;;9.37;86.13
64368;BME280;50692;53.314;-6.300;2023-04-06T05:54:23;101051.34;;;9.32;86.72
64368;BME280;50692;53.314;-6.300;2023-04-06T05:57:09;101053.91;;;9.34;87.13
64368;BME280;50692;53.314;-6.300;2023-04-06T05:59:55;101057.56;;;9.31;87.09
64368;BME280;50692;53.314;-6.300;2023-04-06T06:02:40;101062.69;;;9.34;87.43
64368;BME280;50692;53.314;-6.300;2023-04-06T06:05:28;101066.97;;;9.37;87.78
64368;BME280;50692;53.314;-6.300;2023-04-06T06:08:14;101060.50;;;10.24;83.30
64368;BME280;50692;53.314;-6.300;2023-04-06T06:11:01;101069.22;;;10.26;83.19
64368;BME280;50692;53.314;-6.300;2023-04-06T06:13:47;101066.53;;;10.28;83.21
64368;BME280;50692;53.314;-6.300;2023-04-06T06:16:33;101073.53;;;10.29;83.43
64368;BME280;50692;53.314;-6.300;2023-04-06T06:19:20;101077.94;;;10.28;83.58
64368;BME280;50692;53.314;-6.300;2023-04-06T06:22:05;101078.72;;;10.30;83.65
64368;BME280;50692;53.314;-6.300;2023-04-06T06:24:51;101081.63;;;10.24;84.05
64368;BME280;50692;53.314;-6.300;2023-04-06T06:27:37;101079.91;;;10.23;84.29
64368;BME280;50692;53.314;-6.300;2023-04-06T06:30:23;101085.19;;;10.23;84.17
64368;BME280;50692;53.314;-6.300;2023-04-06T06:33:09;101084.34;;;10.23;84.45
64368;BME280;50692;53.314;-6.300;2023-04-06T06:35:55;101082.75;;;10.19;84.91
64368;BME280;50692;53.314;-6.300;2023-04-06T06:38:40;101094.31;;;10.16;85.33
64368;BME280;50692;53.314;-6.300;2023-04-06T06:41:26;101088.31;;;10.13;85.87
64368;BME280;50692;53.314;-6.300;2023-04-06T06:44:12;101089.59;;;10.04;86.38
64368;BME280;50692;53.314;-6.300;2023-04-06T06:46:58;101091.31;;;10.05;86.52
64368;BME280;50692;53.314;-6.300;2023-04-06T06:49:44;101095.81;;;10.03;86.67
64368;BME280;50692;53.314;-6.300;2023-04-06T06:52:31;101089.66;;;10.02;86.48
64368;BME280;50692;53.314;-6.300;2023-04-06T06:55:17;101090.72;;;9.98;86.61
64368;BME280;50692;53.314;-6.300;2023-04-06T06:58:04;101098.97;;;10.11;86.43
64368;BME280;50692;53.314;-6.300;2023-04-06T07:00:55;101105.09;;;10.12;86.80
64368;BME280;50692;53.314;-6.300;2023-04-06T07:03:41;101100.66;;;10.12;86.70
64368;BME280;50692;53.314;-6.300;2023-04-06T07:06:27;101101.16;;;10.20;86.50
64368;BME280;50692;53.314;-6.300;2023-04-06T07:09:13;101101.88;;;10.24;86.60
64368;BME280;50692;53.314;-6.300;2023-04-06T07:11:59;101100.88;;;10.28;86.41
64368;BME280;50692;53.314;-6.300;2023-04-06T07:14:46;101111.38;;;10.29;86.27
64368;BME280;50692;53.314;-6.300;2023-04-06T07:17:32;101107.06;;;10.27;85.87
64368;BME280;50692;53.314;-6.300;2023-04-06T07:20:18;101110.75;;;10.23;85.97
64368;BME280;50692;53.314;-6.300;2023-04-06T07:23:04;101111.69;;;10.22;85.45
64368;BME280;50692;53.314;-6.300;2023-04-06T07:25:50;101120.53;;;10.21;85.64
64368;BME280;50692;53.314;-6.300;2023-04-06T07:28:37;101124.66;;;10.28;85.40
64368;BME280;50692;53.314;-6.300;2023-04-06T07:31:23;101127.41;;;10.25;85.28
64368;BME280;50692;53.314;-6.300;2023-04-06T07:34:09;101131.13;;;10.21;85.32
64368;BME280;50692;53.314;-6.300;2023-04-06T07:36:55;101129.81;;;10.11;85.67
64368;BME280;50692;53.314;-6.300;2023-04-06T07:39:42;101134.88;;;10.15;85.70
64368;BME280;50692;53.314;-6.300;2023-04-06T07:42:27;101140.06;;;10.17;85.68
64368;BME280;50692;53.314;-6.300;2023-04-06T07:45:13;101142.00;;;10.13;86.19
64368;BME280;50692;53.314;-6.300;2023-04-06T07:48:01;101137.66;;;10.12;86.24
64368;BME280;50692;53.314;-6.300;2023-04-06T07:50:46;101138.44;;;10.14;86.12
64368;BME280;50692;53.314;-6.300;2023-04-06T07:53:32;101139.91;;;10.21;86.31
64368;BME280;50692;53.314;-6.300;2023-04-06T07:56:18;101137.69;;;10.31;86.43
64368;BME280;50692;53.314;-6.300;2023-04-06T07:59:04;101139.81;;;10.43;86.32
64368;BME280;50692;53.314;-6.300;2023-04-06T08:01:49;101145.88;;;10.45;86.17
64368;BME280;50692;53.314;-6.300;2023-04-06T08:04:35;101149.44;;;10.44;85.98
64368;BME280;50692;53.314;-6.300;2023-04-06T08:07:21;101146.03;;;10.42;85.74
64368;BME280;50692;53.314;-6.300;2023-04-06T08:10:07;101143.38;;;10.42;85.93
64368;BME280;50692;53.314;-6.300;2023-04-06T08:12:54;101135.28;;;10.26;85.51
64368;BME280;50692;53.314;-6.300;2023-04-06T08:15:39;101158.53;;;10.57;85.56
64368;BME280;50692;53.314;-6.300;2023-04-06T08:18:25;101162.66;;;10.63;85.23
64368;BME280;50692;53.314;-6.300;2023-04-06T08:21:11;101162.75;;;10.62;84.56
64368;BME280;50692;53.314;-6.300;2023-04-06T08:23:57;101168.31;;;10.55;84.53
64368;BME280;50692;53.314;-6.300;2023-04-06T08:26:43;101167.38;;;10.56;84.36
64368;BME280;50692;53.314;-6.300;2023-04-06T08:29:28;101173.59;;;10.55;84.21
64368;BME280;50692;53.314;-6.300;2023-04-06T08:32:14;101158.69;;;10.54;83.87
64368;BME280;50692;53.314;-6.300;2023-04-06T08:35:00;101178.97;;;10.73;83.79
64368;BME280;50692;53.314;-6.300;2023-04-06T08:37:46;101179.59;;;10.78;83.72
64368;BME280;50692;53.314;-6.300;2023-04-06T08:40:38;101178.81;;;10.95;83.80
64368;BME280;50692;53.314;-6.300;2023-04-06T08:43:25;101183.56;;;11.07;83.65
64368;BME280;50692;53.314;-6.300;2023-04-06T08:46:12;101186.31;;;11.23;82.90
64368;BME280;50692;53.314;-6.300;2023-04-06T08:49:01;101185.56;;;11.38;82.51
64368;BME280;50692;53.314;-6.300;2023-04-06T08:51:47;101190.00;;;11.38;81.48
64368;BME280;50692;53.314;-6.300;2023-04-06T08:54:33;101194.72;;;11.50;80.99
64368;BME280;50692;53.314;-6.300;2023-04-06T08:57:19;101195.81;;;11.63;80.57
64368;BME280;50692;53.314;-6.300;2023-04-06T09:00:07;101202.34;;;11.73;79.70
64368;BME280;50692;53.314;-6.300;2023-04-06T09:02:55;101195.06;;;11.79;78.94
64368;BME280;50692;53.314;-6.300;2023-04-06T09:05:43;101204.44;;;11.86;78.47
64368;BME280;50692;53.314;-6.300;2023-04-06T09:08:30;101208.78;;;11.87;77.45
64368;BME280;50692;53.314;-6.300;2023-04-06T09:11:17;101214.84;;;11.89;76.12
64368;BME280;50692;53.314;-6.300;2023-04-06T09:14:03;101209.34;;;11.93;75.62
64368;BME280;50692;53.314;-6.300;2023-04-06T09:16:48;101219.31;;;11.88;74.53
64368;BME280;50692;53.314;-6.300;2023-04-06T09:19:45;101220.34;;;11.86;73.32
64368;BME280;50692;53.314;-6.300;2023-04-06T09:22:40;101226.16;;;11.92;73.84
64368;BME280;50692;53.314;-6.300;2023-04-06T09:25:27;101227.09;;;12.09;73.71
64368;BME280;50692;53.314;-6.300;2023-04-06T09:28:13;101236.91;;;12.24;73.26
64368;BME280;50692;53.314;-6.300;2023-04-06T09:30:59;101236.91;;;12.41;72.46
64368;BME280;50692;53.314;-6.300;2023-04-06T09:33:45;101243.53;;;12.50;71.65
64368;BME280;50692;53.314;-6.300;2023-04-06T09:36:34;101242.13;;;12.43;70.51
64368;BME280;50692;53.314;-6.300;2023-04-06T09:39:21;101252.66;;;12.27;70.22
64368;BME280;50692;53.314;-6.300;2023-04-06T09:42:08;101255.72;;;12.19;68.94
64368;BME280;50692;53.314;-6.300;2023-04-06T09:44:55;101258.66;;;12.13;68.92
64368;BME280;50692;53.314;-6.300;2023-04-06T09:47:43;101257.66;;;12.33;69.10
64368;BME280;50692;53.314;-6.300;2023-04-06T09:50:30;101266.19;;;12.56;67.52
64368;BME280;50692;53.314;-6.300;2023-04-06T09:53:20;101258.47;;;12.68;66.38
64368;BME280;50692;53.314;-6.300;2023-04-06T09:56:09;101253.91;;;13.04;65.93
64368;BME280;50692;53.314;-6.300;2023-04-06T09:59:01;101244.31;;;13.64;65.02
64368;BME280;50692;53.314;-6.300;2023-04-06T10:01:50;101250.53;;;13.95;63.09
64368;BME280;50692;53.314;-6.300;2023-04-06T10:04:43;101252.34;;;13.95;61.26
64368;BME280;50692;53.314;-6.300;2023-04-06T10:07:29;101263.88;;;13.63;61.17
64368;BME280;50692;53.314;-6.300;2023-04-06T10:10:16;101266.38;;;13.51;61.48
64368;BME280;50692;53.314;-6.300;2023-04-06T10:13:04;101261.38;;;13.29;61.89
64368;BME280;50692;53.314;-6.300;2023-04-06T10:15:51;101270.53;;;13.07;61.65
64368;BME280;50692;53.314;-6.300;2023-04-06T10:18:39;101263.34;;;12.76;61.66
64368;BME280;50692;53.314;-6.300;2023-04-06T10:21:29;101281.72;;;12.63;61.67
64368;BME280;50692;53.314;-6.300;2023-04-06T10:24:17;101278.41;;;13.09;62.63
64368;BME280;50692;53.314;-6.300;2023-04-06T10:27:04;101286.03;;;13.94;61.54
64368;BME280;50692;53.314;-6.300;2023-04-06T10:29:51;101278.53;;;14.75;58.16
64368;BME280;50692;53.314;-6.300;2023-04-06T10:32:38;101267.22;;;15.56;54.41
64368;BME280;50692;53.314;-6.300;2023-04-06T10:35:36;101273.97;;;16.28;51.67
64368;BME280;50692;53.314;-6.300;2023-04-06T10:38:36;101279.63;;;16.37;50.79
64368;BME280;50692;53.314;-6.300;2023-04-06T10:41:22;101279.31;;;15.89;50.73
64368;BME280;50692;53.314;-6.300;2023-04-06T10:44:19;101279.06;;;15.38;50.73
64368;BME280;50692;53.314;-6.300;2023-04-06T10:47:15;101288.06;;;15.49;50.01
64368;BME280;50692;53.314;-6.300;2023-04-06T10:50:02;101300.28;;;16.07;50.94
64368;BME280;50692;53.314;-6.300;2023-04-06T10:53:08;101290.72;;;16.18;49.55
64368;BME280;50692;53.314;-6.300;2023-04-06T10:55:56;101301.75;;;15.99;48.62
64368;BME280;50692;53.314;-6.300;2023-04-06T10:58:49;101299.59;;;16.44;48.73
64368;BME280;50692;53.314;-6.300;2023-04-06T11:01:35;101295.84;;;17.36;47.63
64368;BME280;50692;53.314;-6.300;2023-04-06T11:04:21;101296.88;;;17.59;45.41
64368;BME280;50692;53.314;-6.300;2023-04-06T11:07:08;101297.19;;;17.17;43.48
64368;BME280;50692;53.314;-6.300;2023-04-06T11:09:55;101300.97;;;16.37;44.22
64368;BME280;50692;53.314;-6.300;2023-04-06T11:12:42;101305.72;;;15.65;44.68
64368;BME280;50692;53.314;-6.300;2023-04-06T11:15:34;101294.91;;;15.12;43.54
64368;BME280;50692;53.314;-6.300;2023-04-06T11:18:20;101304.50;;;15.15;43.61
64368;BME280;50692;53.314;-6.300;2023-04-06T11:21:05;101314.47;;;15.11;44.88
64368;BME280;50692;53.314;-6.300;2023-04-06T11:23:51;101312.47;;;14.86;47.02
64368;BME280;50692;53.314;-6.300;2023-04-06T11:26:46;101315.72;;;14.77;48.29
64368;BME280;50692;53.314;-6.300;2023-04-06T11:29:34;101307.44;;;14.81;48.62
64368;BME280;50692;53.314;-6.300;2023-04-06T11:32:22;101314.75;;;15.21;48.20
64368;BME280;50692;53.314;-6.300;2023-04-06T11:35:20;101319.78;;;16.08;46.82
64368;BME280;50692;53.314;-6.300;2023-04-06T11:38:07;101308.28;;;17.11;45.17
64368;BME280;50692;53.314;-6.300;2023-04-06T11:40:53;101312.59;;;17.50;42.81
64368;BME280;50692;53.314;-6.300;2023-04-06T11:43:47;101317.22;;;17.36;41.62
64368;BME280;50692;53.314;-6.300;2023-04-06T11:46:33;101320.69;;;16.87;42.42
64368;BME280;50692;53.314;-6.300;2023-04-06T11:49:19;101325.03;;;16.49;43.68
64368;BME280;50692;53.314;-6.300;2023-04-06T11:52:22;101326.09;;;16.07;44.53
64368;BME280;50692;53.314;-6.300;2023-04-06T11:55:14;101322.56;;;16.06;45.51
64368;BME280;50692;53.314;-6.300;2023-04-06T11:58:00;101323.75;;;16.68;44.74
64368;BME280;50692;53.314;-6.300;2023-04-06T12:00:46;101335.56;;;17.66;42.62
64368;BME280;50692;53.314;-6.300;2023-04-06T12:03:32;101320.22;;;18.40;40.73
64368;BME280;50692;53.314;-6.300;2023-04-06T12:06:20;101325.84;;;19.39;39.74
64368;BME280;50692;53.314;-6.300;2023-04-06T12:09:05;101321.94;;;20.09;38.76
64368;BME280;50692;53.314;-6.300;2023-04-06T12:11:51;101321.47;;;20.78;37.51
64368;BME280;50692;53.314;-6.300;2023-04-06T12:14:37;101317.72;;;21.21;35.84
64368;BME280;50692;53.314;-6.300;2023-04-06T12:17:23;101318.91;;;21.07;35.67
64368;BME280;50692;53.314;-6.300;2023-04-06T12:20:09;101321.28;;;21.31;35.03
64368;BME280;50692;53.314;-6.300;2023-04-06T12:22:55;101318.72;;;21.61;33.81
64368;BME280;50692;53.314;-6.300;2023-04-06T12:25:42;101319.72;;;21.29;33.49
64368;BME280;50692;53.314;-6.300;2023-04-06T12:28:28;101318.59;;;21.01;34.09
64368;BME280;50692;53.314;-6.300;2023-04-06T12:31:15;101326.66;;;20.70;34.87
64368;BME280;50692;53.314;-6.300;2023-04-06T12:34:02;101314.75;;;20.94;33.75
64368;BME280;50692;53.314;-6.300;2023-04-06T12:36:48;101325.19;;;21.48;33.41
64368;BME280;50692;53.314;-6.300;2023-04-06T12:39:34;101317.91;;;22.09;32.94
64368;BME280;50692;53.314;-6.300;2023-04-06T12:42:20;101316.41;;;22.35;31.49
64368;BME280;50692;53.314;-6.300;2023-04-06T12:45:07;101316.19;;;22.66;31.01
64368;BME280;50692;53.314;-6.300;2023-04-06T12:47:53;101319.78;;;22.18;30.75
64368;BME280;50692;53.314;-6.300;2023-04-06T12:50:39;101324.59;;;22.43;30.65
64368;BME280;50692;53.314;-6.300;2023-04-06T12:53:25;101330.66;;;22.74;30.72
64368;BME280;50692;53.314;-6.300;2023-04-06T12:56:15;101329.78;;;22.93;29.53
64368;BME280;50692;53.314;-6.300;2023-04-06T12:59:02;101321.97;;;23.28;28.57
64368;BME280;50692;53.314;-6.300;2023-04-06T13:01:48;101320.31;;;23.44;28.90
64368;BME280;50692;53.314;-6.300;2023-04-06T13:04:34;101328.19;;;23.56;28.82
64368;BME280;50692;53.314;-6.300;2023-04-06T13:07:20;101328.28;;;23.91;28.43
64368;BME280;50692;53.314;-6.300;2023-04-06T13:10:06;101329.59;;;24.05;28.54
64368;BME280;50692;53.314;-6.300;2023-04-06T13:12:52;101339.25;;;22.97;28.86
64368;BME280;50692;53.314;-6.300;2023-04-06T13:15:38;101344.13;;;21.97;30.06
64368;BME280;50692;53.314;-6.300;2023-04-06T13:18:23;101354.63;;;20.68;30.88
64368;BME280;50692;53.314;-6.300;2023-04-06T13:21:13;101356.94;;;19.64;31.55
64368;BME280;50692;53.314;-6.300;2023-04-06T13:24:00;101345.19;;;19.88;31.80
64368;BME280;50692;53.314;-6.300;2023-04-06T13:26:46;101351.13;;;20.77;29.95
64368;BME280;50692;53.314;-6.300;2023-04-06T13:29:32;101345.00;;;21.47;28.58
64368;BME280;50692;53.314;-6.300;2023-04-06T13:32:20;101344.00;;;22.37;28.33
64368;BME280;50692;53.314;-6.300;2023-04-06T13:35:06;101345.88;;;23.13;27.95
64368;BME280;50692;53.314;-6.300;2023-04-06T13:37:52;101345.00;;;23.77;26.98
64368;BME280;50692;53.314;-6.300;2023-04-06T13:40:39;101332.31;;;24.23;26.28
64368;BME280;50692;53.314;-6.300;2023-04-06T13:43:25;101340.78;;;24.46;25.46
64368;BME280;50692;53.314;-6.300;2023-04-06T13:46:12;101340.88;;;24.80;25.40
64368;BME280;50692;53.314;-6.300;2023-04-06T13:48:58;101346.91;;;24.48;24.84
64368;BME280;50692;53.314;-6.300;2023-04-06T13:51:44;101310.38;;;23.17;25.51
64368;BME280;50692;53.314;-6.300;2023-04-06T13:54:29;101343.78;;;22.87;26.41
64368;BME280;50692;53.314;-6.300;2023-04-06T13:57:15;101343.53;;;23.28;26.35
64368;BME280;50692;53.314;-6.300;2023-04-06T14:00:01;101340.88;;;23.83;25.39
64368;BME280;50692;53.314;-6.300;2023-04-06T14:02:47;101346.81;;;24.04;25.27
64368;BME280;50692;53.314;-6.300;2023-04-06T14:05:33;101352.69;;;23.44;25.97
64368;BME280;50692;53.314;-6.300;2023-04-06T14:08:19;101352.09;;;22.47;27.43
64368;BME280;50692;53.314;-6.300;2023-04-06T14:11:06;101359.72;;;21.43;29.22
64368;BME280;50692;53.314;-6.300;2023-04-06T14:13:53;101364.97;;;21.24;30.11
64368;BME280;50692;53.314;-6.300;2023-04-06T14:16:40;101355.13;;;21.74;29.66
64368;BME280;50692;53.314;-6.300;2023-04-06T14:19:29;101353.94;;;22.46;28.22
64368;BME280;50692;53.314;-6.300;2023-04-06T14:22:15;101359.50;;;23.21;27.01
64368;BME280;50692;53.314;-6.300;2023-04-06T14:25:02;101348.28;;;23.99;26.19